createdAt,value
2018-11-01T00:00:06.820Z,73.67
2018-11-01T00:02:35.619Z,73.50
2018-11-01T00:05:04.436Z,73.83
2018-11-01T00:07:33.407Z,73.13
2018-11-01T00:10:02.250Z,73.44
2018-11-01T00:12:31.081Z,73.13
2018-11-01T00:14:59.914Z,73.40
2018-11-01T00:17:28.678Z,73.10
2018-11-01T00:19:57.442Z,73.38
2018-11-01T00:22:26.209Z,73.77
2018-11-01T00:24:55.095Z,74.17
2018-11-01T00:27:23.934Z,73.49
2018-11-01T00:29:52.761Z,74.17
2018-11-01T00:32:21.638Z,74.24
2018-11-01T00:34:50.479Z,73.80
2018-11-01T00:37:19.287Z,74.42
2018-11-01T00:39:48.106Z,73.98
2018-11-01T00:42:16.923Z,74.16
2018-11-01T00:44:45.686Z,74.10
2018-11-01T00:47:14.570Z,75.39
2018-11-01T00:49:43.725Z,75.99
2018-11-01T00:52:12.518Z,76.22
2018-11-01T00:54:41.262Z,75.53
2018-11-01T00:57:10.271Z,76.21
2018-11-01T00:59:39.119Z,76.79
2018-11-01T01:02:08.342Z,76.14
2018-11-01T01:04:37.183Z,76.37
2018-11-01T01:07:06.301Z,76.42
2018-11-01T01:09:35.106Z,75.78
2018-11-01T01:12:04.242Z,74.65
2018-11-01T01:14:33.092Z,74.65
2018-11-01T01:17:01.884Z,74.06
2018-11-01T01:19:30.700Z,74.24
2018-11-01T01:21:59.555Z,73.65
2018-11-01T01:24:28.355Z,73.67
2018-11-01T01:26:57.194Z,73.40
2018-11-01T01:29:25.995Z,74.04
2018-11-01T01:31:55.132Z,73.53
2018-11-01T01:34:23.966Z,73.96
2018-11-01T01:36:52.988Z,73.75
2018-11-01T01:39:21.774Z,72.99
2018-11-01T01:41:50.728Z,73.78
2018-11-01T01:44:19.482Z,73.85
2018-11-01T01:46:50.038Z,73.91
2018-11-01T01:49:18.810Z,73.23
2018-11-01T01:51:47.634Z,73.92
2018-11-01T01:54:16.516Z,73.80
2018-11-01T01:56:45.318Z,73.84
2018-11-01T01:59:14.130Z,74.10
2018-11-01T02:01:42.914Z,74.19
2018-11-01T02:04:12.052Z,74.29
2018-11-01T02:06:40.866Z,74.28
2018-11-01T02:09:13.046Z,74.63
2018-11-01T02:11:43.377Z,74.77
2018-11-01T02:14:12.229Z,74.63
2018-11-01T02:16:41.595Z,74.08
2018-11-01T02:19:10.530Z,74.46
2018-11-01T02:21:39.336Z,74.41
2018-11-01T02:24:08.137Z,73.70
2018-11-01T02:26:36.940Z,74.11
2018-11-01T02:29:06.107Z,73.43
2018-11-01T02:31:34.975Z,73.79
2018-11-01T02:34:04.135Z,74.43
2018-11-01T02:36:32.943Z,74.75
2018-11-01T02:39:01.735Z,74.55
2018-11-01T02:41:30.527Z,73.53
2018-11-01T02:43:59.359Z,73.86
2018-11-01T02:46:28.152Z,73.65
2018-11-01T02:48:56.983Z,73.96
2018-11-01T02:51:25.767Z,74.06
2018-11-01T02:53:54.543Z,73.41
2018-11-01T02:56:23.298Z,73.35
2018-11-01T02:58:52.116Z,73.77
2018-11-01T03:01:20.935Z,73.36
2018-11-01T03:03:50.338Z,72.95
2018-11-01T03:06:19.562Z,73.10
2018-11-01T03:08:48.723Z,73.37
2018-11-01T03:11:18.568Z,73.72
2018-11-01T03:13:47.336Z,73.45
2018-11-01T03:16:16.122Z,73.73
2018-11-01T03:18:44.996Z,73.50
2018-11-01T03:21:13.754Z,73.11
2018-11-01T03:23:42.583Z,73.01
2018-11-01T03:26:11.339Z,72.94
2018-11-01T03:28:40.161Z,73.04
2018-11-01T03:31:08.956Z,73.16
2018-11-01T03:33:37.771Z,73.37
2018-11-01T03:36:06.559Z,73.90
2018-11-01T03:38:35.534Z,74.08
2018-11-01T03:41:04.737Z,73.75
2018-11-01T03:43:33.541Z,74.78
2018-11-01T03:46:03.047Z,74.53
2018-11-01T03:48:31.853Z,74.66
2018-11-01T03:51:00.710Z,74.15
2018-11-01T03:53:29.510Z,74.64
2018-11-01T03:55:58.795Z,74.96
2018-11-01T03:58:27.540Z,75.50
2018-11-01T04:00:56.319Z,75.58
2018-11-01T04:03:25.128Z,74.73
2018-11-01T04:05:53.930Z,75.20
2018-11-01T04:08:22.731Z,75.34
2018-11-01T04:10:51.502Z,75.11
2018-11-01T04:13:20.408Z,74.91
2018-11-01T04:15:49.113Z,74.98
2018-11-01T04:18:18.146Z,74.44
2018-11-01T04:20:46.983Z,74.99
2018-11-01T04:23:16.706Z,75.42
2018-11-01T04:25:45.720Z,75.47
2018-11-01T04:28:14.520Z,75.90
2018-11-01T04:30:43.295Z,75.99
2018-11-01T04:33:12.081Z,76.65
2018-11-01T04:35:41.066Z,76.62
2018-11-01T04:38:09.972Z,77.15
2018-11-01T04:40:38.841Z,77.49
2018-11-01T04:43:07.764Z,77.51
2018-11-01T04:45:36.740Z,76.77
2018-11-01T04:48:05.911Z,76.26
2018-11-01T04:50:34.730Z,76.18
2018-11-01T04:53:03.520Z,76.16
2018-11-01T04:55:32.311Z,75.92
2018-11-01T04:58:01.175Z,75.78
2018-11-01T05:00:30.020Z,75.68
2018-11-01T05:02:58.789Z,76.01
2018-11-01T05:05:27.625Z,75.92
2018-11-01T05:07:56.483Z,75.04
2018-11-01T05:10:25.322Z,75.34
2018-11-01T05:12:54.129Z,75.86
2018-11-01T05:15:23.516Z,75.28
2018-11-01T05:17:52.801Z,75.14
2018-11-01T05:20:21.618Z,75.69
2018-11-01T05:22:50.682Z,75.15
2018-11-01T05:25:19.686Z,74.99
2018-11-01T05:27:48.535Z,75.12
2018-11-01T05:30:17.363Z,75.18
2018-11-01T05:32:46.210Z,75.08
2018-11-01T05:35:15.002Z,75.02
2018-11-01T05:37:43.838Z,74.32
2018-11-01T05:40:13.155Z,74.15
2018-11-01T05:42:43.111Z,74.31
2018-11-01T05:45:12.189Z,74.16
2018-11-01T05:47:40.971Z,74.37
2018-11-01T05:50:09.869Z,74.03
2018-11-01T05:52:39.027Z,73.63
2018-11-01T05:55:08.757Z,74.43
2018-11-01T05:57:37.628Z,74.08
2018-11-01T06:00:11.580Z,73.37
2018-11-01T06:02:43.928Z,74.06
2018-11-01T06:05:12.743Z,73.32
2018-11-01T06:07:47.373Z,74.03
2018-11-01T06:10:16.295Z,73.32
2018-11-01T06:12:45.095Z,72.16
2018-11-01T06:15:13.897Z,71.69
2018-11-01T06:17:42.669Z,71.61
2018-11-01T06:20:12.071Z,71.20
2018-11-01T06:22:40.982Z,70.61
2018-11-01T06:25:10.837Z,70.73
2018-11-01T06:27:39.742Z,70.68
2018-11-01T06:30:11.531Z,69.87
2018-11-01T06:32:40.533Z,70.21
2018-11-01T06:35:16.170Z,70.82
2018-11-01T06:37:45.379Z,70.20
2018-11-01T06:40:14.219Z,70.74
2018-11-01T06:42:43.044Z,70.66
2018-11-01T06:45:11.931Z,69.24
2018-11-01T06:47:40.963Z,68.92
2018-11-01T06:50:09.798Z,68.74
2018-11-01T06:52:38.601Z,68.30
2018-11-01T06:55:08.994Z,68.41
2018-11-01T06:57:37.999Z,69.11
2018-11-01T07:00:11.516Z,68.17
2018-11-01T07:02:40.687Z,68.07
2018-11-01T07:05:09.610Z,67.66
2018-11-01T07:07:39.003Z,68.10
2018-11-01T07:10:09.842Z,67.19
2018-11-01T07:12:38.605Z,66.62
2018-11-01T07:15:08.963Z,66.53
2018-11-01T07:17:38.170Z,66.49
2018-11-01T07:20:08.266Z,65.38
2018-11-01T07:22:38.049Z,64.83
2018-11-01T07:25:08.156Z,64.39
2018-11-01T07:27:37.370Z,64.07
2018-11-01T07:30:12.008Z,64.52
2018-11-01T07:32:40.932Z,64.49
2018-11-01T07:35:11.382Z,64.36
2018-11-01T07:37:41.568Z,64.14
2018-11-01T07:40:12.910Z,63.31
2018-11-01T07:42:41.831Z,63.21
2018-11-01T07:45:11.776Z,63.30
2018-11-01T07:47:41.943Z,63.13
2018-11-01T07:50:11.715Z,62.60
2018-11-01T07:52:40.993Z,61.38
2018-11-01T07:55:13.014Z,61.48
2018-11-01T07:57:41.889Z,61.32
2018-11-01T08:00:14.650Z,60.95
2018-11-01T08:02:44.191Z,61.19
2018-11-01T08:05:19.287Z,61.04
2018-11-01T08:07:48.099Z,61.12
2018-11-01T08:10:18.166Z,61.63
2018-11-01T08:12:47.739Z,61.25
2018-11-01T08:15:17.985Z,60.92
2018-11-01T08:17:46.756Z,60.62
2018-11-01T08:20:16.286Z,59.77
2018-11-01T08:22:45.211Z,58.82
2018-11-01T08:25:14.547Z,59.63
2018-11-01T08:27:43.910Z,59.82
2018-11-01T08:30:14.550Z,59.32
2018-11-01T08:32:43.382Z,60.05
2018-11-01T08:35:12.596Z,59.26
2018-11-01T08:37:42.574Z,59.39
2018-11-01T08:40:12.216Z,59.17
2018-11-01T08:42:41.382Z,58.76
2018-11-01T08:45:11.930Z,58.46
2018-11-01T08:47:41.243Z,58.22
2018-11-01T08:50:11.999Z,57.66
2018-11-01T08:52:42.160Z,58.04
2018-11-01T08:55:11.385Z,57.88
2018-11-01T08:57:41.208Z,57.28
2018-11-01T09:00:10.835Z,56.43
2018-11-01T09:02:40.443Z,56.64
2018-11-01T09:05:10.327Z,57.38
2018-11-01T09:07:39.612Z,56.86
2018-11-01T09:10:17.003Z,56.16
2018-11-01T09:12:46.044Z,56.70
2018-11-01T09:15:16.288Z,57.52
2018-11-01T09:17:45.048Z,57.76
2018-11-01T09:20:14.377Z,57.76
2018-11-01T09:22:43.705Z,57.77
2018-11-01T09:25:12.511Z,57.48
2018-11-01T09:27:41.510Z,57.38
2018-11-01T09:30:12.341Z,56.91
2018-11-01T09:32:41.704Z,56.26
2018-11-01T09:35:11.779Z,55.64
2018-11-01T09:37:41.792Z,54.09
2018-11-01T09:40:12.445Z,53.93
2018-11-01T09:42:41.621Z,53.91
2018-11-01T09:45:10.435Z,53.07
2018-11-01T09:47:39.694Z,52.71
2018-11-01T09:50:09.820Z,53.69
2018-11-01T09:52:38.793Z,53.19
2018-11-01T09:55:07.794Z,52.33
2018-11-01T09:57:36.745Z,53.06
2018-11-01T10:00:13.411Z,53.09
2018-11-01T10:02:43.385Z,52.21
2018-11-01T10:05:12.343Z,53.01
2018-11-01T10:07:41.150Z,53.10
2018-11-01T10:10:11.718Z,52.79
2018-11-01T10:12:41.427Z,51.78
2018-11-01T10:15:10.972Z,52.18
2018-11-01T10:17:40.567Z,51.57
2018-11-01T10:20:11.171Z,51.51
2018-11-01T10:22:40.215Z,51.33
2018-11-01T10:25:11.246Z,51.45
2018-11-01T10:27:40.625Z,51.94
2018-11-01T10:30:13.073Z,52.08
2018-11-01T10:32:42.246Z,51.06
2018-11-01T10:35:11.034Z,51.34
2018-11-01T10:37:40.478Z,51.57
2018-11-01T10:40:12.559Z,50.95
2018-11-01T10:42:41.379Z,51.38
2018-11-01T10:45:10.684Z,51.28
2018-11-01T10:47:40.015Z,50.14
2018-11-01T10:50:12.438Z,51.27
2018-11-01T10:52:41.352Z,50.51
2018-11-01T10:55:11.299Z,50.74
2018-11-01T10:57:40.122Z,50.79
2018-11-01T11:00:17.286Z,50.94
2018-11-01T11:02:48.224Z,51.41
2018-11-01T11:05:18.036Z,50.24
2018-11-01T11:07:46.910Z,50.02
2018-11-01T11:10:16.013Z,50.57
2018-11-01T11:12:44.790Z,49.82
2018-11-01T11:15:13.594Z,49.47
2018-11-01T11:17:42.398Z,50.40
2018-11-01T11:20:12.182Z,50.26
2018-11-01T11:22:41.212Z,50.60
2018-11-01T11:25:11.410Z,50.03
2018-11-01T11:27:40.553Z,49.53
2018-11-01T11:30:10.441Z,50.43
2018-11-01T11:32:39.403Z,50.35
2018-11-01T11:35:08.832Z,50.22
2018-11-01T11:37:37.724Z,49.80
2018-11-01T11:40:07.756Z,50.08
2018-11-01T11:42:36.595Z,49.74
2018-11-01T11:45:06.199Z,48.99
2018-11-01T11:47:35.036Z,48.80
2018-11-01T11:50:04.213Z,49.30
2018-11-01T11:52:33.034Z,48.68
2018-11-01T11:55:02.191Z,48.25
2018-11-01T11:57:31.131Z,49.35
2018-11-01T11:59:59.896Z,48.93
2018-11-01T12:02:28.724Z,48.07
2018-11-01T12:04:57.647Z,48.86
2018-11-01T12:07:26.481Z,48.02
2018-11-01T12:09:55.343Z,47.99
2018-11-01T12:12:24.211Z,48.18
2018-11-01T12:14:52.977Z,48.38
2018-11-01T12:17:21.808Z,49.11
2018-11-01T12:19:50.641Z,49.02
2018-11-01T12:22:19.472Z,48.88
2018-11-01T12:24:48.431Z,48.38
2018-11-01T12:27:17.266Z,48.62
2018-11-01T12:29:46.042Z,49.48
2018-11-01T12:32:14.956Z,49.03
2018-11-01T12:34:43.706Z,49.56
2018-11-01T12:37:12.554Z,50.37
2018-11-01T12:39:41.386Z,50.45
2018-11-01T12:42:10.334Z,49.45
2018-11-01T12:44:39.227Z,50.51
2018-11-01T12:47:08.075Z,50.77
2018-11-01T12:49:36.946Z,50.62
2018-11-01T12:52:06.019Z,49.69
2018-11-01T12:54:34.895Z,49.27
2018-11-01T12:57:03.745Z,50.38
2018-11-01T12:59:32.638Z,50.64
2018-11-01T13:02:01.569Z,50.00
2018-11-01T13:04:30.378Z,50.87
2018-11-01T13:06:59.192Z,50.93
2018-11-01T13:09:28.342Z,50.22
2018-11-01T13:11:57.235Z,51.09
2018-11-01T13:14:26.027Z,51.54
2018-11-01T13:16:55.093Z,50.48
2018-11-01T13:19:23.919Z,51.22
2018-11-01T13:21:52.722Z,50.10
2018-11-01T13:24:21.527Z,50.66
2018-11-01T13:26:50.320Z,50.69
2018-11-01T13:29:19.254Z,50.64
2018-11-01T13:31:48.143Z,49.85
2018-11-01T13:34:16.961Z,50.10
2018-11-01T13:36:45.747Z,50.19
2018-11-01T13:39:14.569Z,50.33
2018-11-01T13:41:43.517Z,50.90
2018-11-01T13:44:12.438Z,51.14
2018-11-01T13:46:41.254Z,50.50
2018-11-01T13:49:10.157Z,51.28
2018-11-01T13:51:38.978Z,51.58
2018-11-01T13:54:07.775Z,50.72
2018-11-01T13:56:36.635Z,50.86
2018-11-01T13:59:06.328Z,51.90
2018-11-01T14:01:35.195Z,51.48
2018-11-01T14:04:04.245Z,52.13
2018-11-01T14:06:33.094Z,52.46
2018-11-01T14:09:01.941Z,52.72
2018-11-01T14:11:30.746Z,52.08
2018-11-01T14:13:59.874Z,52.76
2018-11-01T14:16:28.620Z,52.00
2018-11-01T14:18:57.458Z,51.67
2018-11-01T14:21:26.221Z,51.92
2018-11-01T14:23:55.030Z,53.11
2018-11-01T14:26:23.871Z,53.00
2018-11-01T14:28:52.672Z,52.57
2018-11-01T14:31:21.512Z,53.78
2018-11-01T14:33:50.267Z,53.76
2018-11-01T14:36:19.107Z,53.45
2018-11-01T14:38:47.915Z,54.30
2018-11-01T14:41:16.711Z,54.50
2018-11-01T14:43:45.614Z,54.68
2018-11-01T14:46:14.406Z,54.17
2018-11-01T14:48:43.277Z,54.60
2018-11-01T14:51:12.173Z,54.69
2018-11-01T14:53:41.093Z,54.82
2018-11-01T14:56:11.395Z,55.01
2018-11-01T14:58:40.116Z,54.36
2018-11-01T15:01:08.420Z,54.62
2018-11-01T15:03:37.203Z,54.56
2018-11-01T15:06:06.451Z,54.26
2018-11-01T15:08:35.275Z,54.42
2018-11-01T15:11:04.026Z,54.12
2018-11-01T15:13:32.933Z,54.19
2018-11-01T15:16:01.867Z,54.16
2018-11-01T15:18:30.763Z,54.91
2018-11-01T15:20:59.622Z,54.68
2018-11-01T15:23:28.454Z,54.17
2018-11-01T15:25:57.328Z,54.73
2018-11-01T15:28:26.256Z,54.37
2018-11-01T15:30:55.107Z,53.91
2018-11-01T15:33:23.996Z,54.20
2018-11-01T15:35:53.028Z,53.67
2018-11-01T15:38:22.244Z,52.95
2018-11-01T15:40:56.229Z,53.79
2018-11-01T15:43:25.035Z,53.04
2018-11-01T15:45:53.960Z,53.04
2018-11-01T15:48:22.997Z,53.12
2018-11-01T15:50:51.908Z,52.94
2018-11-01T15:53:20.719Z,53.62
2018-11-01T15:55:49.554Z,53.43
2018-11-01T15:58:18.382Z,53.49
2018-11-01T16:00:47.322Z,53.63
2018-11-01T16:03:16.194Z,53.76
2018-11-01T16:05:45.187Z,54.20
2018-11-01T16:08:13.994Z,54.14
2018-11-01T16:10:42.806Z,53.31
2018-11-01T16:13:11.611Z,53.42
2018-11-01T16:15:40.398Z,53.51
2018-11-01T16:18:09.152Z,53.63
2018-11-01T16:20:37.929Z,53.66
2018-11-01T16:23:06.803Z,53.53
2018-11-01T16:25:35.620Z,53.83
2018-11-01T16:28:04.451Z,53.50
2018-11-01T16:30:33.320Z,53.84
2018-11-01T16:33:02.086Z,54.28
2018-11-01T16:35:30.868Z,54.67
2018-11-01T16:38:00.016Z,54.11
2018-11-01T16:40:28.822Z,55.02
2018-11-01T16:42:57.722Z,54.30
2018-11-01T16:45:26.616Z,54.70
2018-11-01T16:47:55.477Z,54.53
2018-11-01T16:50:24.259Z,55.45
2018-11-01T16:52:53.073Z,55.39
2018-11-01T16:55:22.074Z,54.59
2018-11-01T16:57:52.329Z,55.38
2018-11-01T17:00:21.216Z,55.68
2018-11-01T17:02:50.199Z,55.36
2018-11-01T17:05:19.279Z,55.72
2018-11-01T17:07:48.078Z,55.64
2018-11-01T17:10:16.993Z,55.42
2018-11-01T17:12:45.786Z,56.66
2018-11-01T17:15:15.747Z,57.06
2018-11-01T17:17:45.545Z,56.44
2018-11-01T17:20:14.386Z,57.31
2018-11-01T17:22:43.458Z,56.76
2018-11-01T17:25:12.568Z,56.77
2018-11-01T17:27:41.484Z,56.53
2018-11-01T17:30:12.086Z,57.67
2018-11-01T17:32:45.957Z,57.61
2018-11-01T17:35:15.215Z,57.61
2018-11-01T17:37:44.002Z,57.91
2018-11-01T17:40:13.899Z,57.81
2018-11-01T17:42:43.535Z,57.25
2018-11-01T17:45:12.367Z,56.36
2018-11-01T17:47:41.887Z,57.42
2018-11-01T17:50:12.492Z,57.68
2018-11-01T17:52:41.834Z,57.07
2018-11-01T17:55:10.632Z,57.63
2018-11-01T17:57:40.160Z,57.55
2018-11-01T18:00:15.009Z,58.00
2018-11-01T18:02:44.314Z,58.12
2018-11-01T18:05:13.688Z,57.70
2018-11-01T18:07:42.666Z,58.01
2018-11-01T18:10:12.559Z,58.17
2018-11-01T18:12:41.778Z,57.97
2018-11-01T18:15:10.758Z,58.00
2018-11-01T18:17:39.532Z,58.19
2018-11-01T18:20:10.194Z,57.93
2018-11-01T18:22:39.480Z,58.20
2018-11-01T18:25:09.890Z,57.93
2018-11-01T18:27:38.670Z,58.53
2018-11-01T18:30:12.430Z,58.91
2018-11-01T18:32:41.809Z,58.28
2018-11-01T18:35:11.393Z,58.34
2018-11-01T18:37:40.958Z,58.89
2018-11-01T18:40:13.470Z,59.18
2018-11-01T18:42:42.439Z,58.50
2018-11-01T18:45:12.795Z,58.92
2018-11-01T18:47:42.421Z,58.26
2018-11-01T18:50:13.095Z,59.18
2018-11-01T18:52:42.622Z,58.31
2018-11-01T18:55:12.577Z,58.13
2018-11-01T18:57:41.548Z,59.13
2018-11-01T19:00:14.684Z,58.15
2018-11-01T19:02:43.738Z,58.18
2018-11-01T19:05:12.856Z,58.36
2018-11-01T19:07:42.316Z,58.82
2018-11-01T19:10:12.098Z,58.72
2018-11-01T19:12:41.054Z,58.49
2018-11-01T19:15:11.534Z,57.83
2018-11-01T19:17:41.106Z,57.95
2018-11-01T19:20:11.138Z,57.40
2018-11-01T19:22:40.125Z,57.55
2018-11-01T19:25:09.679Z,57.89
2018-11-01T19:27:39.467Z,57.34
2018-11-01T19:30:11.451Z,58.31
2018-11-01T19:32:40.491Z,58.09
2018-11-01T19:35:10.966Z,58.03
2018-11-01T19:37:39.815Z,58.07
2018-11-01T19:40:11.469Z,58.38
2018-11-01T19:42:40.326Z,58.59
2018-11-01T19:45:09.313Z,58.72
2018-11-01T19:47:38.451Z,59.38
2018-11-01T19:50:08.898Z,59.32
2018-11-01T19:52:37.652Z,58.83
2018-11-01T19:55:06.678Z,58.84
2018-11-01T19:57:35.689Z,58.92
2018-11-01T20:00:10.096Z,58.17
2018-11-01T20:02:38.979Z,57.74
2018-11-01T20:05:08.998Z,57.89
2018-11-01T20:07:37.890Z,57.81
2018-11-01T20:10:08.300Z,57.91
2018-11-01T20:12:37.303Z,57.78
2018-11-01T20:15:06.778Z,57.76
2018-11-01T20:17:35.843Z,57.63
2018-11-01T20:20:06.233Z,58.18
2018-11-01T20:22:35.007Z,58.16
2018-11-01T20:25:03.885Z,58.33
2018-11-01T20:27:32.704Z,58.67
2018-11-01T20:30:01.712Z,58.31
2018-11-01T20:32:30.730Z,58.90
2018-11-01T20:34:59.519Z,58.71
2018-11-01T20:37:28.337Z,58.48
2018-11-01T20:39:57.131Z,58.46
2018-11-01T20:42:25.945Z,58.46
2018-11-01T20:44:54.779Z,58.62
2018-11-01T20:47:23.583Z,59.05
2018-11-01T20:49:52.337Z,58.36
2018-11-01T20:52:21.206Z,59.06
2018-11-01T20:54:49.990Z,60.02
2018-11-01T20:57:19.182Z,60.07
2018-11-01T20:59:48.069Z,61.37
2018-11-01T21:02:16.888Z,61.61
2018-11-01T21:04:46.416Z,61.96
2018-11-01T21:07:15.370Z,62.08
2018-11-01T21:09:44.161Z,62.05
2018-11-01T21:12:13.294Z,62.94
2018-11-01T21:14:42.178Z,62.92
2018-11-01T21:17:11.001Z,63.45
2018-11-01T21:19:40.054Z,64.31
2018-11-01T21:22:12.119Z,64.25
2018-11-01T21:24:40.906Z,64.53
2018-11-01T21:27:10.205Z,65.35
2018-11-01T21:29:39.056Z,65.81
2018-11-01T21:32:08.575Z,66.10
2018-11-01T21:34:37.587Z,65.93
2018-11-01T21:37:06.842Z,66.42
2018-11-01T21:39:35.901Z,67.21
2018-11-01T21:42:05.284Z,67.53
2018-11-01T21:44:34.466Z,67.70
2018-11-01T21:47:03.331Z,69.02
2018-11-01T21:49:32.343Z,69.41
2018-11-01T21:52:01.114Z,69.09
2018-11-01T21:54:30.346Z,69.66
2018-11-01T21:56:59.125Z,69.54
2018-11-01T21:59:27.926Z,70.44
2018-11-01T22:01:56.754Z,70.18
2018-11-01T22:04:25.531Z,71.22
2018-11-01T22:06:54.594Z,71.24
2018-11-01T22:09:23.543Z,70.78
2018-11-01T22:11:52.588Z,71.55
2018-11-01T22:14:21.371Z,71.20
2018-11-01T22:16:50.209Z,71.89
2018-11-01T22:19:19.195Z,72.36
2018-11-01T22:21:48.045Z,72.63
2018-11-01T22:24:16.798Z,72.62
2018-11-01T22:26:45.547Z,72.57
2018-11-01T22:29:14.348Z,72.95
2018-11-01T22:31:43.264Z,73.05
2018-11-01T22:34:12.034Z,72.70
2018-11-01T22:36:40.818Z,73.18
2018-11-01T22:39:10.431Z,73.54
2018-11-01T22:41:39.411Z,72.99
2018-11-01T22:44:08.337Z,73.51
2018-11-01T22:46:37.075Z,72.56
2018-11-01T22:49:06.260Z,72.58
2018-11-01T22:51:35.238Z,72.88
2018-11-01T22:54:04.265Z,72.91
2018-11-01T22:56:33.064Z,73.66
2018-11-01T22:59:01.922Z,73.86
2018-11-01T23:01:30.960Z,73.58
2018-11-01T23:03:59.742Z,73.42
2018-11-01T23:06:28.540Z,74.23
2018-11-01T23:08:57.342Z,74.16
2018-11-01T23:11:26.167Z,73.36
2018-11-01T23:13:54.956Z,73.96
2018-11-01T23:16:23.715Z,73.64
2018-11-01T23:18:52.493Z,73.65
2018-11-01T23:21:21.293Z,73.75
2018-11-01T23:23:50.054Z,73.73
2018-11-01T23:26:18.829Z,74.70
2018-11-01T23:28:47.754Z,74.31
2018-11-01T23:31:16.578Z,74.20
2018-11-01T23:33:45.364Z,74.54
2018-11-01T23:36:13.416Z,75.05
2018-11-01T23:38:47.333Z,74.84
2018-11-01T23:41:21.381Z,74.14
2018-11-01T23:43:55.374Z,74.81
2018-11-01T23:46:29.426Z,74.73
2018-11-01T23:49:16.722Z,74.08
2018-11-01T23:51:49.634Z,74.01
2018-11-01T23:54:18.414Z,74.70
2018-11-01T23:56:47.236Z,73.74
2018-11-01T23:59:16.029Z,74.54
